^^
Datos históricos de la estación: Murcia-Puente Tocinos
Diario Informe para Noviembre 12, 2021 Unidades:  Métrico    Ingés   Ambas
Diario Semanal Mensual Anual
  Máxima: Mínima: Promedio:
Temperatura: 14.7 °C 13.2 °C 13.8 °C
Punto de rocio: 6.9 °C 4.1 °C 5 °C
Humedad: 63% 51% 55%
Velocidad viento: 10km/h 5km/h 7.8km/h
Racha viento: 18.5km/h - -
Viento- - SSO
Presión: 1016.0 hPa 1014.9 hPa -
Precipitación: 0.3 mm    
 
 
Tabla de datos para Noviembre 12, 2021
Hora Temperatura Punto de rocio Presión Viento Velocidad viento Racha viento Humedad Intensidad lluvia(por hora) Nubes
00:04 14.3 °C 6.9 °C 1015.9 hPa SSO 6.9 km/h 11.1 km/h 61% 0.0 mm
00:09 14.3 °C 6.8 °C 1015.9 hPa SSO 7.2 km/h 10 km/h 60.8% 0.0 mm
00:14 14.3 °C 6.6 °C 1015.9 hPa SSO 7.6 km/h 9.5 km/h 59.9% 0.0 mm
00:19 14.3 °C 6.4 °C 1015.9 hPa SSO 7 km/h 7.4 km/h 59% 0.0 mm
00:24 14.3 °C 6.2 °C 1016.0 hPa SSO 6.4 km/h 7.6 km/h 58.2% 0.0 mm
00:29 14.3 °C 6 °C 1016.0 hPa SSO 5.8 km/h 7.6 km/h 57.4% 0.0 mm
00:34 14.4 °C 6.1 °C 1016.0 hPa SSE 5 km/h 8.4 km/h 57.5% 0.0 mm
00:39 14.2 °C 6.5 °C 1016.0 hPa SSE 5.4 km/h 9.3 km/h 59.5% 0.0 mm
00:44 13.9 °C 6.6 °C 1016.0 hPa SE 5.8 km/h 10 km/h 61.3% 0.0 mm
00:49 13.7 °C 6.7 °C 1016.0 hPa SSE 6.1 km/h 11.1 km/h 62.8% 0.0 mm
00:54 13.4 °C 6.5 °C 1016.0 hPa Sur 6.4 km/h 11.1 km/h 63% 0.0 mm
00:59 13.3 °C 6.4 °C 1016.0 hPa SSO 7 km/h 11.9 km/h 63% 0.0 mm
01:04 13.2 °C 6.3 °C 1016.0 hPa SSO 7.6 km/h 10 km/h 63% 0.0 mm
01:09 13.2 °C 6.3 °C 1016.0 hPa Sur 7.3 km/h 10 km/h 63% 0.0 mm
01:14 13.2 °C 6.1 °C 1016.0 hPa Sur 6.9 km/h 11.1 km/h 62.1% 0.0 mm
01:19 13.3 °C 6.1 °C 1016.0 hPa Sur 7.3 km/h 11.1 km/h 61.9% 0.0 mm
01:24 13.3 °C 5.9 °C 1016.0 hPa Sur 7.6 km/h 11.1 km/h 61% 0.0 mm
01:29 13.3 °C 5.7 °C 1016.0 hPa Sur 7.3 km/h 9.5 km/h 60.2% 0.0 mm
01:34 13.3 °C 5.7 °C 1016.0 hPa Sur 6.9 km/h 9.5 km/h 60% 0.0 mm
01:39 13.3 °C 5.5 °C 1016.0 hPa SSE 6.7 km/h 11.1 km/h 59.4% 0.0 mm
01:44 13.3 °C 5.4 °C 1015.8 hPa SSE 6.4 km/h 11.1 km/h 59% 0.0 mm
01:49 13.3 °C 5.4 °C 1015.8 hPa Sur 7 km/h 11.9 km/h 58.6% 0.0 mm
01:54 13.3 °C 5.1 °C 1015.8 hPa Sur 7.6 km/h 14.8 km/h 57.5% 0.0 mm
01:59 13.4 °C 5 °C 1015.7 hPa Sur 8.5 km/h 11.9 km/h 57% 0.0 mm
02:04 13.4 °C 4.9 °C 1015.7 hPa Sur 9.5 km/h 14.8 km/h 56.3% 0.0 mm
02:09 13.4 °C 4.8 °C 1015.7 hPa SSO 9.1 km/h 13 km/h 56% 0.0 mm
02:14 13.4 °C 4.8 °C 1015.5 hPa Sur 8.7 km/h 14 km/h 56% 0.0 mm
02:19 13.5 °C 4.6 °C 1015.5 hPa Sur 8.7 km/h 14.8 km/h 55% 0.0 mm
02:24 13.6 °C 4.5 °C 1015.5 hPa Sur 8.7 km/h 15.6 km/h 54.5% 0.0 mm
02:29 13.6 °C 4.4 °C 1015.4 hPa Sur 9.3 km/h 14.8 km/h 54% 0.0 mm
02:34 13.5 °C 4.4 °C 1015.4 hPa Sur 10 km/h 13 km/h 54% 0.0 mm
02:39 13.5 °C 4.4 °C 1015.5 hPa SSO 8.9 km/h 11.1 km/h 54% 0.0 mm
02:44 13.5 °C 4.4 °C 1015.5 hPa Sur 7.6 km/h 11.1 km/h 54% 0.0 mm
02:49 13.6 °C 4.4 °C 1015.5 hPa SSE 7.6 km/h 10 km/h 54% 0.0 mm
02:54 13.6 °C 4.4 °C 1015.5 hPa Sur 7.6 km/h 11.1 km/h 54% 0.0 mm
02:59 13.6 °C 4.4 °C 1015.2 hPa Sur 8 km/h 14.8 km/h 54% 0.0 mm
03:04 13.6 °C 4.4 °C 1015.2 hPa SO 8.4 km/h 13.7 km/h 53.8% 0.0 mm
03:09 13.6 °C 4.2 °C 1015.2 hPa SSO 8.9 km/h 16.7 km/h 53% 0.0 mm
03:14 13.7 °C 4.2 °C 1015.2 hPa SSO 9.5 km/h 13 km/h 53% 0.0 mm
03:19 13.7 °C 4.1 °C 1015.2 hPa Sur 8.6 km/h 13 km/h 52.5% 0.0 mm
03:24 13.8 °C 4.1 °C 1015.2 hPa Sur 7.6 km/h 9.5 km/h 52% 0.0 mm
03:29 13.8 °C 4.1 °C 1015.2 hPa Sur 7 km/h 9.5 km/h 52% 0.0 mm
03:34 13.8 °C 4.2 °C 1015.2 hPa SSE 6.4 km/h 11.1 km/h 52.5% 0.0 mm
03:39 13.7 °C 4.3 °C 1015.2 hPa Sur 7 km/h 14.8 km/h 53% 0.0 mm
03:44 13.6 °C 4.2 °C 1015.1 hPa Sur 7.6 km/h 13 km/h 53% 0.0 mm
03:49 13.6 °C 4.2 °C 1015.1 hPa SSO 8.1 km/h 14.8 km/h 53% 0.0 mm
03:54 13.6 °C 4.2 °C 1015.1 hPa SSO 8.7 km/h 13.7 km/h 53% 0.0 mm
03:59 13.6 °C 4.2 °C 1015.1 hPa Sur 9.1 km/h 13.7 km/h 53% 0.0 mm
04:04 13.6 °C 4.2 °C 1015.1 hPa Sur 9.5 km/h 16.1 km/h 53% 0.0 mm
04:09 13.6 °C 4.2 °C 1015.1 hPa Sur 9.5 km/h 16.7 km/h 53% 0.0 mm
04:14 13.6 °C 4.2 °C 1014.9 hPa Sur 9.5 km/h 14.8 km/h 53% 0.0 mm
04:19 13.7 °C 4.3 °C 1014.9 hPa Sur 9.5 km/h 13 km/h 53% 0.0 mm
04:24 13.7 °C 4.3 °C 1014.9 hPa Sur 9.5 km/h 13 km/h 53% 0.0 mm
04:29 13.8 °C 4.3 °C 1014.9 hPa Sur 9.7 km/h 16.7 km/h 53% 0.0 mm
04:34 13.9 °C 4.2 °C 1014.9 hPa SSO 10 km/h 13.7 km/h 52% 0.0 mm
04:39 14.1 °C 4.2 °C 1014.9 hPa SO 9.3 km/h 13.7 km/h 51.3% 0.0 mm
04:44 14.3 °C 4.3 °C 1014.9 hPa OSO 8.7 km/h 14.8 km/h 51% 0.0 mm
04:49 14.3 °C 4.3 °C 1014.9 hPa SSO 7.6 km/h 7.4 km/h 51% 0.0 mm
04:54 14.2 °C 4.4 °C 1014.9 hPa SSO 6.4 km/h 11.1 km/h 51.9% 0.0 mm
04:59 14.1 °C 4.5 °C 1014.9 hPa SSO 6.4 km/h 14.8 km/h 52.5% 0.0 mm
05:04 13.9 °C 4.9 °C 1014.9 hPa SSO 6.4 km/h 15.6 km/h 54.6% 0.3 mm
05:09 13.7 °C 5.1 °C 1015.0 hPa SSO 7.7 km/h 13.7 km/h 56.1% 0.3 mm
05:14 13.7 °C 4.9 °C 1015.0 hPa SSO 9.5 km/h 13 km/h 55.2% 0.3 mm
05:19 13.8 °C 4.9 °C 1015.0 hPa SSO 9.5 km/h 11.1 km/h 55.1% 0.3 mm
05:24 13.9 °C 5 °C 1015.1 hPa Sur 9.5 km/h 13 km/h 55.1% 0.3 mm
05:29 13.8 °C 5.4 °C 1015.1 hPa SSE 9 km/h 13 km/h 56.7% 0.3 mm
05:34 13.7 °C 5.3 °C 1015.1 hPa Sur 8.4 km/h 13.7 km/h 56.7% 0.3 mm
05:39 13.7 °C 4.9 °C 1015.1 hPa SSO 8.4 km/h 14.8 km/h 55.4% 0.3 mm
05:44 14 °C 4.6 °C 1015.0 hPa SSO 8.4 km/h 15.6 km/h 53.1% 0.3 mm
05:49 14.2 °C 4.6 °C 1015.0 hPa SSO 8.9 km/h 13 km/h 52.5% 0.3 mm
05:54 14.2 °C 4.6 °C 1015.0 hPa SSO 9.5 km/h 13.7 km/h 52.2% 0.3 mm
05:59 14.3 °C 4.6 °C 1015.0 hPa SO 8.9 km/h 14.8 km/h 51.9% 0.3 mm
06:04 14.4 °C 4.6 °C 1015.0 hPa SSO 8.4 km/h 14.8 km/h 51.9% 0.0 mm
06:09 14.4 °C 4.7 °C 1015.0 hPa SO 8.4 km/h 13.7 km/h 52% 0.0 mm
06:14 14.4 °C 4.6 °C 1015.0 hPa SO 8.4 km/h 14.8 km/h 51.5% 0.0 mm
06:19 14.6 °C 4.6 °C 1015.0 hPa SSO 8.5 km/h 16.7 km/h 51.2% 0.0 mm
06:24 14.6 °C 4.6 °C 1015.0 hPa SSO 8.7 km/h 18.5 km/h 51% 0.0 mm
06:29 14.7 °C 4.7 °C 1015.0 hPa SO 9.3 km/h 18.5 km/h 51% 0.0 mm
06:34 14.7 °C 4.7 °C 1015.0 hPa SSO 10 km/h 11.1 km/h 51.4% 0.0 mm
06:39 14.4 °C 5.1 °C 1015.0 hPa SO 8.8 km/h 14.8 km/h 53.4% 0.0 mm
06:44 14.2 °C 5.1 °C 1014.9 hPa SO 7.6 km/h 10 km/h 54.5% 0.0 mm
06:49 14.1 °C 5.1 °C 1014.9 hPa SO 7 km/h 11.1 km/h 54.8% 0.0 mm
06:54 14 °C 5.1 °C 1015.0 hPa SO 6.4 km/h 9.5 km/h 55% 0.0 mm
06:59 13.9 °C 5 °C 1015.0 hPa SO 6.1 km/h 8.4 km/h 55% 0.0 mm
07:04 13.9 °C 5 °C 1015.0 hPa SO 5.8 km/h 7.4 km/h 55.2% 0.0 mm
07:09 13.8 °C 5.2 °C 1015.1 hPa SSE 5.4 km/h 9.5 km/h 56% 0.0 mm
07:14 13.7 °C 5.2 °C 1015.1 hPa Sur 5 km/h 11.9 km/h 56.6% 0.0 mm
07:19 13.6 °C 5.2 °C 1015.1 hPa SSO 6.3 km/h 13 km/h 56.8% 0.0 mm
07:24 13.7 °C 5 °C 1015.1 hPa SO 7.6 km/h 13 km/h 56% 0.0 mm
07:29 13.7 °C 5 °C 1015.0 hPa SSO 7.6 km/h 9.5 km/h 56% 0.0 mm
07:34 13.6 °C 5.2 °C 1015.0 hPa SSE 7.6 km/h 11.1 km/h 56.7% 0.0 mm
07:39 13.4 °C 5.2 °C 1015.2 hPa Sur 7.6 km/h 11.9 km/h 57.4% 0.0 mm
07:44 13.3 °C 5.2 °C 1015.2 hPa SSO 7.6 km/h 11.1 km/h 58% 0.0 mm
07:49 13.3 °C 5.1 °C 1015.2 hPa SSO 7.6 km/h 10.3 km/h 57.4% 0.0 mm
07:54 13.4 °C 5 °C 1015.2 hPa SSO 7.6 km/h 11.1 km/h 57% 0.0 mm
07:59 13.4 °C 5.1 °C 1015.2 hPa SO 7.2 km/h 9.3 km/h 57% 0.0 mm
08:04 13.5 °C 5 °C 1015.2 hPa SO 6.9 km/h 11.9 km/h 56.3% 0.0 mm
08:09 13.6 °C 5 °C 1015.3 hPa SO 7.2 km/h 13.7 km/h 56% 0.0 mm
08:14 13.6 °C 4.8 °C 1015.3 hPa SO 7.6 km/h 13 km/h 55.3% 0.0 mm
08:19 13.6 °C 4.7 °C 1015.3 hPa SO 8 km/h 13 km/h 55% 0.0 mm
08:24 13.7 °C 5 °C 1015.4 hPa SO 8.4 km/h 9.3 km/h 55.9% 0.0 mm
08:29 13.7 °C 5.1 °C 1015.4 hPa SSO 7.1 km/h 9.5 km/h 56% 0.0 mm
08:34 13.7 °C 5.2 °C 1015.4 hPa Sur 5.8 km/h 11.1 km/h 56.4% 0.0 mm
08:39 13.7 °C 5.2 °C 1015.6 hPa Sur 6.8 km/h 13 km/h 56.6% 0.0 mm
08:44 13.7 °C 5.2 °C 1015.6 hPa SSO 7.6 km/h 11.1 km/h 56.6% 0.0 mm
08:49 13.8 °C 5.1 °C 1015.6 hPa SSO 7.6 km/h 13 km/h 56% 0.0 mm
08:54 13.9 °C 5.1 °C 1015.8 hPa SSO 7.6 km/h 13 km/h 55.4% 0.0 mm
08:59 14.1 °C 5.2 °C 1015.8 hPa SSO 7.9 km/h 13 km/h 55% 0.0 mm
09:04 14.3 °C 5.2 °C 1015.8 hPa Sur 8.4 km/h 9.3 km/h 54.7% 0.0 mm
09:09 14.4 °C 5.4 °C 1015.9 hPa Sur 7.7 km/h 13 km/h 54.4% 0.0 mm
09:14 14.5 °C 5.3 °C 1015.9 hPa Sur 6.9 km/h 14.8 km/h 54% 0.0 mm
09:19 14.6 °C 5.2 °C 1015.9 hPa SSO 8.1 km/h 16.7 km/h 53.3% 0.0 mm
09:24 14.6 °C 5.2 °C 1015.9 hPa SSO 10 km/h 14.8 km/h 53.4% 0.0 mm
09:29 14.6 °C 5.4 °C 1015.9 hPa SSO 9.2 km/h 13 km/h 54% 0.0 mm
09:34 14.5 °C 5.3 °C 1015.9 hPa SO 8.4 km/h 11.1 km/h 54% 0.0 mm
09:39 14.5 °C 5.3 °C 1015.9 hPa SO 8.1 km/h 13 km/h 54% 0.0 mm
09:44 14.6 °C 5.4 °C 1015.9 hPa SSO 7.6 km/h 13 km/h 54% 0.0 mm
09:49 14.7 °C 5.4 °C 1015.9 hPa SSO 7.6 km/h 11.1 km/h 54% 0.0 mm
09:54 14.7 °C 5.5 °C 1016.0 hPa SSO 7.6 km/h 11.1 km/h 54% 0.0 mm
Murcia-Puente Tocinos, Espa?a
Compliments of Weather Underground - 2 mb

La estación de MeteoMurcia.com, publica sus datos en los siguientes proyectos:

Weather Underground PWS IMURCIAP2 Meteoclimatic www.awekas.at

W3Counter
Web Analytics